Time;durP1;ratioP1;P1;durP2;ratioP2;P2;SDS_P1;SDS_P2;PMS_P1;PMS_P2;Temp;Humidity;BMP_temperature;BMP_pressure;BME280_temperature;BME280_humidity;BME280_pressure;Samples;Min_cycle;Max_cycle;Signal;HPM_P1;HPM_P2
2023/06/22 00:01:58;;;;;;;4.97;3.13;;;23.10;81.90;;;;;;10455701;28;20025;-70
2023/06/22 00:06:58;;;;;;;6.22;3.63;;;23.10;82.00;;;;;;10454113;28;20023;-70
2023/06/22 00:11:59;;;;;;;3.95;3.20;;;23.00;81.90;;;;;;10453426;28;20548;-69
2023/06/22 00:16:59;;;;;;;3.83;3.03;;;23.00;82.00;;;;;;10450411;28;20099;-70
2023/06/22 00:22:00;;;;;;;5.95;3.03;;;23.00;82.00;;;;;;10452645;28;20025;-70
2023/06/22 00:27:01;;;;;;;6.15;3.80;;;23.00;82.20;;;;;;10455413;28;20162;-70
2023/06/22 00:32:01;;;;;;;7.38;3.47;;;22.90;82.10;;;;;;10452311;28;20028;-69
2023/06/22 00:37:02;;;;;;;5.10;3.75;;;22.90;82.20;;;;;;10459386;28;20103;-70
2023/06/22 00:42:03;;;;;;;4.88;3.67;;;22.90;82.20;;;;;;10454510;28;20032;-70
2023/06/22 00:47:04;;;;;;;6.88;4.05;;;22.90;82.30;;;;;;10433131;28;20009;-70
2023/06/22 00:52:13;;;;;;;5.32;3.95;;;22.80;82.30;;;;;;10449938;28;20370;-69
2023/06/22 00:57:18;;;;;;;8.77;5.00;;;22.80;82.40;;;;;;10452608;28;20028;-71
2023/06/22 01:02:18;;;;;;;6.95;3.80;;;22.80;82.50;;;;;;10445993;28;20025;-70
2023/06/22 01:07:45;;;;;;;6.70;4.40;;;22.80;82.60;;;;;;10449608;28;20025;-70
2023/06/22 01:12:55;;;;;;;5.80;4.13;;;22.80;82.80;;;;;;10453380;28;20405;-71
2023/06/22 01:17:58;;;;;;;7.20;5.13;;;22.70;82.60;;;;;;10449354;28;20490;-70
2023/06/22 01:23:15;;;;;;;9.18;5.10;;;22.70;82.70;;;;;;10446271;28;20023;-69
2023/06/22 01:28:41;;;;;;;6.93;4.90;;;22.70;82.90;;;;;;10449396;28;20056;-71
2023/06/22 01:33:45;;;;;;;9.13;5.13;;;22.70;83.00;;;;;;10459500;28;20505;-69
2023/06/22 01:38:47;;;;;;;8.13;4.78;;;22.60;82.90;;;;;;10446838;28;20524;-71
2023/06/22 01:43:49;;;;;;;8.20;5.22;;;22.60;83.00;;;;;;10440835;28;20013;-71
2023/06/22 01:48:51;;;;;;;7.70;5.20;;;22.60;83.10;;;;;;10454872;28;20035;-70
2023/06/22 01:53:51;;;;;;;8.68;5.47;;;22.50;83.00;;;;;;10447015;28;20528;-70
2023/06/22 01:59:19;;;;;;;7.78;5.35;;;22.50;83.10;;;;;;10454491;28;20086;-71
2023/06/22 02:04:27;;;;;;;6.60;4.90;;;22.50;83.30;;;;;;10429993;28;20032;-70
2023/06/22 02:09:31;;;;;;;8.88;5.38;;;22.50;83.30;;;;;;10444696;28;20040;-69
2023/06/22 02:14:34;;;;;;;8.52;5.78;;;22.40;83.20;;;;;;10449968;28;20051;-70
2023/06/22 02:19:40;;;;;;;6.78;5.25;;;22.40;83.30;;;;;;10441054;28;20017;-70
2023/06/22 02:24:42;;;;;;;8.38;5.50;;;22.40;83.40;;;;;;10434444;28;20033;-69
2023/06/22 02:29:43;;;;;;;6.80;5.38;;;22.40;83.40;;;;;;10441912;28;20555;-69
2023/06/22 02:34:47;;;;;;;10.35;6.07;;;22.30;83.40;;;;;;10435375;28;20086;-70
2023/06/22 02:39:47;;;;;;;8.35;5.65;;;22.30;83.50;;;;;;10440491;28;20021;-70
2023/06/22 02:44:48;;;;;;;10.65;5.97;;;22.30;83.50;;;;;;10442112;28;20597;-69
2023/06/22 02:49:49;;;;;;;9.55;5.38;;;22.30;83.50;;;;;;10434687;28;20025;-70
2023/06/22 02:54:50;;;;;;;7.03;5.50;;;22.20;83.50;;;;;;10441368;28;20040;-70
2023/06/22 02:59:50;;;;;;;7.75;5.97;;;22.20;83.50;;;;;;10445714;28;20070;-72
2023/06/22 03:04:53;;;;;;;7.78;5.70;;;22.20;83.60;;;;;;10431129;28;20040;-70
2023/06/22 03:09:54;;;;;;;7.97;5.38;;;22.20;83.70;;;;;;10445859;28;20207;-69
2023/06/22 03:14:54;;;;;;;8.13;5.60;;;22.10;83.60;;;;;;10440038;28;20051;-69
2023/06/22 03:19:55;;;;;;;7.35;5.22;;;22.10;83.70;;;;;;10438190;28;20032;-69
2023/06/22 03:24:55;;;;;;;7.90;5.78;;;22.10;83.70;;;;;;10443765;28;20112;-69
2023/06/22 03:29:57;;;;;;;8.27;5.68;;;22.00;83.70;;;;;;10452896;28;20226;-69
2023/06/22 03:34:58;;;;;;;7.90;5.70;;;22.10;83.70;;;;;;10452191;28;20037;-70
2023/06/22 03:39:59;;;;;;;8.05;5.15;;;22.00;83.70;;;;;;10442691;28;20159;-69
2023/06/22 03:45:00;;;;;;;7.60;5.68;;;22.00;83.80;;;;;;10444868;28;20505;-70
2023/06/22 03:50:03;;;;;;;7.10;5.47;;;22.00;83.80;;;;;;10427779;28;20043;-70
2023/06/22 03:55:04;;;;;;;9.30;5.55;;;22.00;83.80;;;;;;10442424;28;20021;-70
2023/06/22 04:00:05;;;;;;;6.60;5.18;;;22.00;83.90;;;;;;10443269;28;20035;-69
2023/06/22 04:05:06;;;;;;;7.47;4.95;;;21.90;83.80;;;;;;10445380;28;20021;-69
2023/06/22 04:10:07;;;;;;;10.15;6.00;;;21.90;83.80;;;;;;10448559;28;20515;-70
2023/06/22 04:15:08;;;;;;;8.10;5.15;;;21.90;83.80;;;;;;10447176;28;20017;-71
2023/06/22 04:20:09;;;;;;;7.30;5.22;;;21.90;83.80;;;;;;10440073;28;20025;-71
2023/06/22 04:25:10;;;;;;;7.15;5.30;;;21.90;83.90;;;;;;10446123;28;20091;-70
2023/06/22 04:30:12;;;;;;;7.90;5.35;;;21.90;83.90;;;;;;10444522;28;20282;-69
2023/06/22 04:35:15;;;;;;;7.32;5.53;;;21.80;83.80;;;;;;10442085;28;20104;-69
2023/06/22 04:40:16;;;;;;;6.78;4.85;;;21.80;83.80;;;;;;10447481;28;20023;-71
2023/06/22 04:45:17;;;;;;;8.32;5.57;;;21.80;83.80;;;;;;10442633;28;20090;-69
2023/06/22 04:50:20;;;;;;;7.47;5.15;;;21.80;83.90;;;;;;10443049;28;20026;-69
2023/06/22 04:55:21;;;;;;;9.60;5.75;;;21.80;83.80;;;;;;10445213;28;20029;-69
2023/06/22 05:00:22;;;;;;;7.70;5.57;;;21.80;83.80;;;;;;10455006;28;20647;-69
2023/06/22 05:05:24;;;;;;;7.82;5.28;;;21.80;83.90;;;;;;10448644;28;20452;-70
2023/06/22 05:10:25;;;;;;;7.35;5.53;;;21.80;83.90;;;;;;10439012;28;20021;-70
2023/06/22 05:15:30;;;;;;;7.25;5.57;;;21.70;83.90;;;;;;10433003;28;20023;-70
2023/06/22 05:20:30;;;;;;;7.80;5.35;;;21.70;83.90;;;;;;10444547;28;20025;-70
2023/06/22 05:25:32;;;;;;;8.13;5.03;;;21.70;83.80;;;;;;10439697;28;20033;-69
2023/06/22 05:30:33;;;;;;;7.32;5.30;;;21.70;83.80;;;;;;10448512;28;20023;-70
2023/06/22 05:35:33;;;;;;;9.57;5.13;;;21.70;84.00;;;;;;10439533;28;20020;-70
2023/06/22 05:40:34;;;;;;;9.45;5.15;;;21.70;83.80;;;;;;10435710;28;20037;-70
2023/06/22 05:45:34;;;;;;;8.10;4.80;;;21.80;83.90;;;;;;10444653;28;20024;-70
2023/06/22 05:50:37;;;;;;;8.93;4.72;;;21.70;83.90;;;;;;10439072;28;20025;-71
2023/06/22 05:55:38;;;;;;;6.22;4.97;;;21.70;83.80;;;;;;10445564;28;20021;-70
2023/06/22 06:00:39;;;;;;;6.57;4.78;;;21.70;83.90;;;;;;10444964;28;20090;-69
2023/06/22 06:05:39;;;;;;;9.25;5.07;;;21.70;83.90;;;;;;10419864;28;20028;-69
2023/06/22 06:10:40;;;;;;;5.97;3.90;;;21.70;83.80;;;;;;10440122;28;20032;-71
2023/06/22 06:15:41;;;;;;;6.53;5.13;;;21.70;83.80;;;;;;10438298;28;20032;-70
2023/06/22 06:20:41;;;;;;;7.68;4.28;;;21.80;83.90;;;;;;10436001;28;20025;-69
2023/06/22 06:25:42;;;;;;;13.95;9.68;;;21.80;83.70;;;;;;10442922;28;20032;-68
2023/06/22 06:30:43;;;;;;;27.83;16.27;;;21.70;84.40;;;;;;10438453;28;20021;-67
2023/06/22 06:35:43;;;;;;;25.90;15.70;;;21.50;86.70;;;;;;10441388;28;20374;-67
2023/06/22 06:40:45;;;;;;;27.25;17.08;;;21.20;88.60;;;;;;10445674;28;20029;-67
2023/06/22 06:45:45;;;;;;;29.55;18.30;;;21.00;89.90;;;;;;10436991;28;20055;-68
2023/06/22 06:50:46;;;;;;;25.27;16.27;;;20.90;90.70;;;;;;10454193;28;20112;-68
2023/06/22 06:55:47;;;;;;;27.98;16.50;;;20.70;91.50;;;;;;10437101;28;20033;-69
2023/06/22 07:00:47;;;;;;;22.92;15.80;;;20.70;91.60;;;;;;10435113;28;20698;-68
2023/06/22 07:05:48;;;;;;;24.00;14.85;;;20.80;91.60;;;;;;10444829;28;20094;-68
2023/06/22 07:10:49;;;;;;;24.85;15.65;;;20.80;91.90;;;;;;10450716;28;20098;-67
2023/06/22 07:15:49;;;;;;;23.38;14.65;;;20.80;92.10;;;;;;10439553;28;20104;-66
2023/06/22 07:20:50;;;;;;;22.70;14.02;;;20.90;92.40;;;;;;10443853;28;20505;-67
2023/06/22 07:25:50;;;;;;;20.88;12.93;;;21.00;92.30;;;;;;10428947;28;20525;-67
2023/06/22 07:30:51;;;;;;;22.33;12.80;;;21.10;92.20;;;;;;10444800;28;20457;-67
2023/06/22 07:35:52;;;;;;;18.27;12.00;;;21.20;92.30;;;;;;10444794;28;20419;-67
2023/06/22 07:40:53;;;;;;;22.55;12.80;;;21.10;92.30;;;;;;10446761;28;20321;-69
2023/06/22 07:45:54;;;;;;;20.20;12.38;;;21.20;92.20;;;;;;10442663;28;20089;-67
2023/06/22 07:50:55;;;;;;;18.90;12.05;;;21.30;92.40;;;;;;10450939;28;20408;-69
2023/06/22 07:55:55;;;;;;;19.42;12.23;;;21.30;92.30;;;;;;10442879;28;20053;-69
2023/06/22 08:00:56;;;;;;;19.63;11.55;;;21.40;92.30;;;;;;10455034;28;20112;-70
2023/06/22 08:05:57;;;;;;;18.98;12.15;;;21.40;92.30;;;;;;10448836;28;20025;-70
2023/06/22 08:10:58;;;;;;;15.23;10.70;;;21.50;92.40;;;;;;10443546;28;20489;-71
2023/06/22 08:15:58;;;;;;;16.23;10.68;;;21.60;92.50;;;;;;10452504;28;20155;-65
2023/06/22 08:20:59;;;;;;;18.27;10.57;;;21.60;92.40;;;;;;10444594;28;20116;-69
2023/06/22 08:26:00;;;;;;;15.60;9.88;;;21.80;92.30;;;;;;10444228;28;20033;-68
2023/06/22 08:31:02;;;;;;;17.73;10.20;;;21.90;92.10;;;;;;10452641;28;20072;-69
2023/06/22 08:36:04;;;;;;;12.98;8.82;;;22.10;92.00;;;;;;10456033;28;20049;-69
2023/06/22 08:41:05;;;;;;;14.38;9.65;;;22.20;91.90;;;;;;10451599;28;20079;-69
2023/06/22 08:46:05;;;;;;;14.00;8.65;;;22.30;91.60;;;;;;10437915;28;20079;-70
2023/06/22 08:51:06;;;;;;;12.60;8.55;;;22.40;91.90;;;;;;10447492;28;21125;-69
2023/06/22 08:56:06;;;;;;;13.90;9.02;;;22.40;91.60;;;;;;10446281;28;20026;-68
2023/06/22 09:01:07;;;;;;;13.50;8.40;;;22.50;91.40;;;;;;10448090;28;20493;-67
2023/06/22 09:06:09;;;;;;;13.15;8.18;;;22.60;91.30;;;;;;10445544;28;20021;-68
2023/06/22 09:11:09;;;;;;;12.60;8.18;;;22.70;91.30;;;;;;10439779;28;20048;-70
2023/06/22 09:16:11;;;;;;;12.77;7.75;;;22.70;91.20;;;;;;10440374;28;20568;-68
2023/06/22 09:21:12;;;;;;;11.10;8.00;;;22.80;91.10;;;;;;10440566;28;20443;-68
2023/06/22 09:26:12;;;;;;;12.52;7.90;;;22.90;91.00;;;;;;10454146;28;20029;-67
2023/06/22 09:31:13;;;;;;;10.68;7.78;;;23.00;90.80;;;;;;10441190;28;20020;-68
2023/06/22 09:36:14;;;;;;;12.63;8.02;;;23.10;90.80;;;;;;10454589;28;20040;-68
2023/06/22 09:41:16;;;;;;;10.73;6.90;;;23.30;90.60;;;;;;10457877;28;20050;-70
2023/06/22 09:46:17;;;;;;;10.50;6.35;;;23.40;90.20;;;;;;10451808;28;20022;-68
2023/06/22 09:51:19;;;;;;;9.02;5.55;;;23.50;90.10;;;;;;10447590;28;20021;-69
2023/06/22 09:56:20;;;;;;;10.13;6.82;;;23.60;89.80;;;;;;10440130;28;20028;-70
2023/06/22 10:01:21;;;;;;;9.73;6.40;;;23.60;89.20;;;;;;10444767;28;20497;-68
2023/06/22 10:06:22;;;;;;;9.80;6.10;;;23.70;88.90;;;;;;10445725;28;20409;-68
2023/06/22 10:11:28;;;;;;;9.60;6.18;;;23.80;88.50;;;;;;10453955;28;20956;-69
2023/06/22 10:16:33;;;;;;;10.25;6.13;;;24.00;88.00;;;;;;10452586;28;20477;-68
2023/06/22 10:21:34;;;;;;;9.57;6.63;;;24.00;87.00;;;;;;10447312;28;20504;-67
2023/06/22 10:26:36;;;;;;;8.85;5.75;;;24.10;87.50;;;;;;10450690;28;20481;-69
2023/06/22 10:31:36;;;;;;;10.60;5.55;;;24.20;86.20;;;;;;10445532;28;20032;-68
2023/06/22 10:36:38;;;;;;;13.18;5.97;;;24.20;86.30;;;;;;10439569;28;20037;-67
2023/06/22 10:41:39;;;;;;;8.25;5.30;;;24.30;85.50;;;;;;10451296;28;20680;-68
2023/06/22 10:46:39;;;;;;;6.18;4.15;;;24.40;86.00;;;;;;10445650;28;20026;-69
2023/06/22 10:51:40;;;;;;;7.00;4.30;;;24.40;85.60;;;;;;10444035;28;20028;-68
2023/06/22 10:56:40;;;;;;;5.53;4.10;;;24.40;85.20;;;;;;10443503;28;20037;-68
2023/06/22 11:01:41;;;;;;;6.30;3.97;;;24.40;84.60;;;;;;10442449;28;20107;-69
2023/06/22 11:06:42;;;;;;;8.32;4.55;;;24.40;84.30;;;;;;10451134;28;20620;-70
2023/06/22 11:11:42;;;;;;;6.63;4.63;;;24.40;84.30;;;;;;10453436;28;20509;-70
2023/06/22 11:16:43;;;;;;;7.03;4.80;;;24.50;84.40;;;;;;10450409;28;20033;-69
2023/06/22 11:21:44;;;;;;;6.57;4.65;;;24.50;84.30;;;;;;10437684;28;20086;-69
2023/06/22 11:26:44;;;;;;;8.75;5.70;;;24.50;84.20;;;;;;10447188;28;20090;-67
2023/06/22 11:31:45;;;;;;;6.40;4.38;;;24.50;83.80;;;;;;10457103;28;20140;-69
2023/06/22 11:36:47;;;;;;;7.57;5.28;;;24.50;83.40;;;;;;10449111;28;20328;-70
2023/06/22 11:41:48;;;;;;;6.57;4.88;;;24.60;83.30;;;;;;10465860;28;20476;-70
2023/06/22 11:46:49;;;;;;;8.85;4.80;;;24.60;83.40;;;;;;10463519;28;20112;-69
2023/06/22 11:51:49;;;;;;;10.00;5.20;;;24.60;83.20;;;;;;10454753;28;20500;-71
2023/06/22 11:56:50;;;;;;;9.50;4.80;;;24.60;83.10;;;;;;10442644;28;20025;-68
2023/06/22 12:01:51;;;;;;;7.40;4.60;;;24.50;83.00;;;;;;10460995;28;20095;-69
2023/06/22 12:06:52;;;;;;;11.30;5.95;;;24.60;82.60;;;;;;10443788;28;20013;-69
2023/06/22 12:11:52;;;;;;;10.40;5.60;;;24.50;82.70;;;;;;10453391;28;20033;-68
2023/06/22 12:16:53;;;;;;;7.10;5.03;;;24.50;83.10;;;;;;10446866;28;20025;-68
2023/06/22 12:21:54;;;;;;;8.45;5.50;;;24.40;83.00;;;;;;10447125;28;20025;-68
2023/06/22 12:26:54;;;;;;;8.63;5.35;;;24.40;82.60;;;;;;10456009;28;20203;-66
2023/06/22 12:31:55;;;;;;;7.68;5.25;;;24.40;82.40;;;;;;10430656;28;20033;-68
2023/06/22 12:36:55;;;;;;;8.90;5.30;;;24.40;82.20;;;;;;10447921;28;20031;-68
2023/06/22 12:41:56;;;;;;;7.80;5.43;;;24.50;82.30;;;;;;10448018;28;20526;-68
2023/06/22 12:46:57;;;;;;;6.60;5.30;;;24.40;82.20;;;;;;10443046;28;20021;-69
2023/06/22 12:51:57;;;;;;;6.88;4.32;;;24.40;82.40;;;;;;10438696;28;20052;-68
2023/06/22 12:56:58;;;;;;;7.65;4.85;;;24.30;82.70;;;;;;10444620;28;20096;-69
2023/06/22 13:01:59;;;;;;;7.95;5.60;;;24.20;82.70;;;;;;10447413;28;20040;-68
2023/06/22 13:06:59;;;;;;;5.65;4.50;;;24.20;82.90;;;;;;10442298;28;20013;-69
2023/06/22 13:12:00;;;;;;;7.82;4.70;;;24.10;83.00;;;;;;10441968;28;20063;-70
2023/06/22 13:17:00;;;;;;;6.13;5.13;;;24.10;82.90;;;;;;10439328;28;20029;-69
2023/06/22 13:22:02;;;;;;;8.20;5.20;;;24.10;82.70;;;;;;10443695;28;20369;-69
2023/06/22 13:27:03;;;;;;;7.40;4.72;;;24.00;82.60;;;;;;10450075;28;20108;-70
2023/06/22 13:32:04;;;;;;;7.90;5.30;;;24.00;82.80;;;;;;10439038;28;20032;-70
2023/06/22 13:37:05;;;;;;;8.93;6.03;;;23.90;83.00;;;;;;10433385;28;20370;-73
2023/06/22 13:42:06;;;;;;;8.75;6.43;;;23.80;83.30;;;;;;10435339;28;20444;-72
2023/06/22 13:47:07;;;;;;;9.70;5.78;;;23.80;83.80;;;;;;10434411;28;20036;-71
2023/06/22 13:52:10;;;;;;;10.10;5.78;;;23.80;84.40;;;;;;10447194;28;20388;-69
2023/06/22 13:57:10;;;;;;;7.95;5.93;;;23.70;84.90;;;;;;10443387;28;20048;-69
2023/06/22 14:02:11;;;;;;;8.48;5.97;;;23.70;85.40;;;;;;10449183;28;20040;-70
2023/06/22 14:07:12;;;;;;;9.13;6.35;;;23.70;85.60;;;;;;10442661;28;20209;-69
2023/06/22 14:12:12;;;;;;;8.90;5.88;;;23.60;85.80;;;;;;10437836;28;20044;-72
2023/06/22 14:17:15;;;;;;;6.75;4.90;;;23.60;86.60;;;;;;10445487;28;20017;-71
2023/06/22 14:22:16;;;;;;;8.73;5.07;;;23.60;86.80;;;;;;10439293;28;20521;-70
2023/06/22 14:27:17;;;;;;;7.47;5.00;;;23.60;87.10;;;;;;10449894;28;20025;-69
2023/06/22 14:32:17;;;;;;;13.55;4.90;;;23.60;87.50;;;;;;10444867;28;20028;-70
2023/06/22 14:37:18;;;;;;;8.35;6.00;;;23.60;88.00;;;;;;10436583;28;20441;-70
2023/06/22 14:42:19;;;;;;;8.40;5.32;;;23.70;88.40;;;;;;10438124;28;20028;-69
2023/06/22 14:47:20;;;;;;;7.63;4.43;;;23.70;88.80;;;;;;10436601;28;20024;-70
2023/06/22 14:52:21;;;;;;;8.30;4.60;;;23.60;89.00;;;;;;10442059;28;20023;-69
2023/06/22 14:57:22;;;;;;;10.18;4.78;;;23.60;89.20;;;;;;10438455;28;20586;-69
2023/06/22 15:02:29;;;;;;;10.00;6.38;;;23.50;89.50;;;;;;10438483;28;20107;-68
2023/06/22 15:07:29;;;;;;;11.10;5.90;;;23.50;90.00;;;;;;10448974;28;20947;-68
2023/06/22 15:12:30;;;;;;;7.22;5.60;;;23.40;90.20;;;;;;10452959;28;20447;-69
2023/06/22 15:17:30;;;;;;;7.75;5.40;;;23.40;90.30;;;;;;10443921;28;20032;-68
2023/06/22 15:22:31;;;;;;;7.60;4.75;;;23.40;90.40;;;;;;10450002;28;20116;-70
2023/06/22 15:27:32;;;;;;;9.13;6.00;;;23.30;90.50;;;;;;10443495;28;20035;-67
2023/06/22 15:32:32;;;;;;;10.15;6.78;;;23.30;90.80;;;;;;10451302;28;20055;-68
2023/06/22 15:37:33;;;;;;;11.30;7.32;;;23.30;91.10;;;;;;10451161;28;20140;-68
2023/06/22 15:42:34;;;;;;;10.65;6.53;;;23.30;91.40;;;;;;10454380;28;20074;-68
2023/06/22 15:47:35;;;;;;;11.55;7.15;;;23.20;91.50;;;;;;10435385;28;20024;-68
2023/06/22 15:52:35;;;;;;;13.60;6.18;;;23.20;91.60;;;;;;10435237;28;20586;-68
2023/06/22 15:57:36;;;;;;;13.15;7.10;;;23.20;91.70;;;;;;10441594;28;20025;-70
2023/06/22 16:02:37;;;;;;;9.40;6.30;;;23.20;91.90;;;;;;10454273;28;20033;-68
2023/06/22 16:07:38;;;;;;;7.35;5.55;;;23.10;92.00;;;;;;10447276;28;20135;-68
2023/06/22 16:12:42;;;;;;;9.13;5.80;;;23.00;92.10;;;;;;10444835;28;20040;-68
2023/06/22 16:17:42;;;;;;;9.75;5.43;;;23.10;92.40;;;;;;10450190;28;20381;-68
2023/06/22 16:22:45;;;;;;;10.20;5.47;;;23.00;92.30;;;;;;10446692;28;20025;-68
2023/06/22 16:27:46;;;;;;;7.85;4.90;;;23.00;92.40;;;;;;10433907;28;20455;-68
2023/06/22 16:32:54;;;;;;;7.57;4.60;;;23.00;92.40;;;;;;10443945;28;20079;-70
2023/06/22 16:37:55;;;;;;;6.15;4.30;;;22.90;92.60;;;;;;10437097;28;20025;-68
2023/06/22 16:42:56;;;;;;;6.28;4.63;;;22.90;92.60;;;;;;10443097;28;20021;-68
2023/06/22 16:47:57;;;;;;;6.38;4.50;;;22.80;92.70;;;;;;10443001;28;20031;-68
2023/06/22 16:52:57;;;;;;;6.43;4.38;;;22.80;92.70;;;;;;10451880;28;20114;-68
2023/06/22 16:58:00;;;;;;;7.75;4.60;;;22.70;92.80;;;;;;10451124;28;20024;-68
2023/06/22 17:03:04;;;;;;;7.75;4.63;;;22.70;92.90;;;;;;10442531;28;20031;-68
2023/06/22 17:08:07;;;;;;;4.70;3.83;;;22.70;93.00;;;;;;10445129;28;20041;-68
2023/06/22 17:13:08;;;;;;;5.32;3.50;;;22.60;93.00;;;;;;10447945;28;20028;-67
2023/06/22 17:18:09;;;;;;;5.30;3.53;;;22.60;93.00;;;;;;10440537;28;20554;-69
2023/06/22 17:23:10;;;;;;;6.50;3.08;;;22.60;93.00;;;;;;10440572;28;20026;-69
2023/06/22 17:28:11;;;;;;;3.85;2.65;;;22.60;92.90;;;;;;10446813;28;20492;-68
2023/06/22 17:33:18;;;;;;;4.13;2.72;;;22.50;92.90;;;;;;10442277;28;20104;-68
2023/06/22 17:38:21;;;;;;;6.90;3.08;;;22.50;92.90;;;;;;10430084;28;20172;-66
2023/06/22 17:43:21;;;;;;;5.68;2.70;;;22.50;92.90;;;;;;10440384;28;20054;-66
2023/06/22 17:48:23;;;;;;;6.35;2.70;;;22.60;92.80;;;;;;10450201;28;20202;-67
2023/06/22 17:53:26;;;;;;;3.83;2.50;;;22.60;92.80;;;;;;10448565;28;20062;-68
2023/06/22 17:58:27;;;;;;;4.70;2.80;;;22.60;92.70;;;;;;10435006;28;20032;-67
2023/06/22 18:03:28;;;;;;;6.03;3.40;;;22.60;92.70;;;;;;10442991;28;20017;-67
2023/06/22 18:08:29;;;;;;;7.05;3.22;;;22.60;92.70;;;;;;10442595;28;20055;-66
2023/06/22 18:13:30;;;;;;;7.00;3.13;;;22.60;92.60;;;;;;10441553;28;20052;-65
2023/06/22 18:18:33;;;;;;;9.35;3.67;;;22.60;92.60;;;;;;10445540;28;20086;-67
2023/06/22 18:23:36;;;;;;;8.90;3.35;;;22.60;92.60;;;;;;10433561;28;20448;-68
2023/06/22 18:28:37;;;;;;;6.20;4.22;;;22.60;92.60;;;;;;10433780;28;20488;-66
2023/06/22 18:33:39;;;;;;;4.68;2.85;;;22.60;92.50;;;;;;10433778;28;20025;-66
2023/06/22 18:38:48;;;;;;;7.53;3.30;;;22.60;92.50;;;;;;10437101;28;20024;-66
2023/06/22 18:43:53;;;;;;;5.15;3.08;;;22.60;92.40;;;;;;10430310;28;20105;-66
2023/06/22 18:48:59;;;;;;;4.07;2.95;;;22.50;92.40;;;;;;10434319;28;20025;-67
2023/06/22 18:54:04;;;;;;;5.03;2.97;;;22.50;92.40;;;;;;10434053;28;20044;-67
2023/06/22 18:59:11;;;;;;;5.28;3.05;;;22.40;92.40;;;;;;10434402;28;20044;-67
2023/06/22 19:04:16;;;;;;;4.03;2.88;;;22.40;92.40;;;;;;10448652;28;20086;-67
2023/06/22 19:09:18;;;;;;;3.47;2.70;;;22.40;92.40;;;;;;10442024;28;20029;-67
2023/06/22 19:14:21;;;;;;;4.70;2.50;;;22.40;92.30;;;;;;10440014;28;20493;-67
2023/06/22 19:19:23;;;;;;;4.43;3.10;;;22.30;92.30;;;;;;10436754;28;20025;-67
2023/06/22 19:24:31;;;;;;;4.85;2.60;;;22.30;92.30;;;;;;10437926;28;20080;-67
2023/06/22 19:29:31;;;;;;;;;;;22.30;92.20;;;;;;10444725;28;20033;-66
2023/06/22 19:34:35;;;;;;;6.32;2.58;;;22.20;92.10;;;;;;10431413;28;20342;-68
2023/06/22 19:39:36;;;;;;;2.78;2.00;;;22.20;92.10;;;;;;10437588;28;20017;-67
2023/06/22 19:44:36;;;;;;;3.30;2.15;;;22.20;92.10;;;;;;10449746;28;20635;-67
2023/06/22 19:49:37;;;;;;;5.63;2.67;;;22.20;92.00;;;;;;10428289;28;20417;-67
2023/06/22 19:54:41;;;;;;;3.90;2.20;;;22.10;92.00;;;;;;10436374;28;20035;-67
2023/06/22 19:59:44;;;;;;;3.58;2.65;;;22.10;91.90;;;;;;10437423;28;20490;-67
2023/06/22 20:04:45;;;;;;;4.53;2.40;;;22.10;91.90;;;;;;10441803;28;20447;-67
2023/06/22 20:09:46;;;;;;;3.75;2.63;;;22.10;91.80;;;;;;10432995;28;20029;-67
2023/06/22 20:14:46;;;;;;;4.85;2.67;;;22.10;91.80;;;;;;10440360;28;20025;-68
2023/06/22 20:19:53;;;;;;;5.55;2.45;;;22.00;91.70;;;;;;10440365;28;20032;-67
2023/06/22 20:24:54;;;;;;;3.45;2.50;;;22.10;91.70;;;;;;10432391;28;20044;-67
2023/06/22 20:29:55;;;;;;;4.88;2.72;;;22.00;91.60;;;;;;10439360;28;20025;-67
2023/06/22 20:34:55;;;;;;;3.85;2.80;;;22.10;91.60;;;;;;10439232;28;20043;-66
2023/06/22 20:39:56;;;;;;;4.68;2.38;;;22.00;91.60;;;;;;10426212;28;20044;-66
2023/06/22 20:44:57;;;;;;;3.92;2.42;;;22.00;91.60;;;;;;10439370;28;20036;-69
2023/06/22 20:50:01;;;;;;;3.80;2.45;;;22.00;91.60;;;;;;10434818;28;20048;-69
2023/06/22 20:55:02;;;;;;;4.20;2.38;;;22.00;91.50;;;;;;10437585;28;20466;-69
2023/06/22 21:00:06;;;;;;;3.92;2.70;;;21.90;91.50;;;;;;10434199;28;20040;-69
2023/06/22 21:05:07;;;;;;;3.15;2.50;;;21.90;91.50;;;;;;10432479;28;20038;-70
2023/06/22 21:10:08;;;;;;;4.22;2.55;;;21.90;91.50;;;;;;10435534;28;20109;-69
2023/06/22 21:15:09;;;;;;;3.90;2.50;;;21.90;91.50;;;;;;10434728;28;20104;-69
2023/06/22 21:20:17;;;;;;;3.80;2.30;;;21.80;91.50;;;;;;10429087;28;20063;-69
2023/06/22 21:25:17;;;;;;;2.85;2.40;;;21.80;91.50;;;;;;10437288;28;20256;-69
2023/06/22 21:30:18;;;;;;;3.65;2.53;;;21.80;91.50;;;;;;10435442;28;20024;-69
2023/06/22 21:35:18;;;;;;;2.65;2.10;;;21.80;91.50;;;;;;10438651;28;20036;-69
2023/06/22 21:40:19;;;;;;;3.15;2.50;;;21.80;91.50;;;;;;10439489;28;20079;-69
2023/06/22 21:45:20;;;;;;;2.90;2.28;;;21.80;91.50;;;;;;10437714;28;20409;-70
2023/06/22 21:50:20;;;;;;;6.00;2.50;;;21.70;91.50;;;;;;10429275;28;20025;-69
2023/06/22 21:55:21;;;;;;;4.43;2.08;;;21.70;91.50;;;;;;10438911;28;20029;-69
2023/06/22 22:00:21;;;;;;;3.67;2.10;;;21.70;91.50;;;;;;10438360;28;20559;-69
2023/06/22 22:05:22;;;;;;;2.85;2.20;;;21.70;91.50;;;;;;10443002;28;20473;-69
2023/06/22 22:10:23;;;;;;;3.78;2.20;;;21.70;91.50;;;;;;10434418;28;20121;-69
2023/06/22 22:15:23;;;;;;;3.10;1.90;;;21.60;91.40;;;;;;10440106;28;20025;-69
2023/06/22 22:20:24;;;;;;;4.72;2.30;;;21.60;91.40;;;;;;10429196;28;20044;-69
2023/06/22 22:25:26;;;;;;;2.45;1.88;;;21.60;91.40;;;;;;10419686;28;20485;-69
2023/06/22 22:30:26;;;;;;;3.33;2.30;;;21.60;91.40;;;;;;10439570;28;20391;-69
2023/06/22 22:35:27;;;;;;;2.55;1.85;;;21.60;91.40;;;;;;10436890;28;20083;-69
2023/06/22 22:40:28;;;;;;;2.60;1.77;;;21.50;91.40;;;;;;10439704;28;20102;-69
2023/06/22 22:45:29;;;;;;;3.65;2.20;;;21.50;91.30;;;;;;10438167;28;20025;-69
2023/06/22 22:50:29;;;;;;;3.78;2.10;;;21.50;91.40;;;;;;10435530;28;20502;-69
2023/06/22 22:55:30;;;;;;;2.92;1.88;;;21.50;91.30;;;;;;10448757;28;20046;-69
2023/06/22 23:00:32;;;;;;;4.32;2.10;;;21.50;91.40;;;;;;10433663;28;20013;-69
2023/06/22 23:05:33;;;;;;;3.83;2.40;;;21.30;91.30;;;;;;10442922;28;20025;-69
2023/06/22 23:10:34;;;;;;;2.22;1.75;;;21.40;91.40;;;;;;10446627;28;20551;-68
2023/06/22 23:15:34;;;;;;;3.10;1.80;;;21.40;91.40;;;;;;10449951;28;20034;-69
2023/06/22 23:20:35;;;;;;;3.90;1.67;;;21.40;91.30;;;;;;10447416;28;20009;-69
2023/06/22 23:25:36;;;;;;;3.60;2.20;;;21.40;91.30;;;;;;10439043;28;20052;-69
2023/06/22 23:30:37;;;;;;;2.50;1.90;;;21.40;91.40;;;;;;10463561;28;20396;-69
2023/06/22 23:35:40;;;;;;;2.47;2.08;;;21.30;91.40;;;;;;10456066;28;20631;-69
2023/06/22 23:40:40;;;;;;;2.00;1.80;;;21.30;91.40;;;;;;10464888;28;20024;-69
2023/06/22 23:45:41;;;;;;;3.28;2.05;;;21.30;91.40;;;;;;10444441;28;20021;-69
2023/06/22 23:50:42;;;;;;;3.08;1.90;;;21.30;91.30;;;;;;10456434;28;20032;-69
2023/06/22 23:55:42;;;;;;;2.63;1.98;;;21.30;91.40;;;;;;10463573;28;20101;-69
